Time;durP1;ratioP1;P1;durP2;ratioP2;P2;SDS_P1;SDS_P2;PMS_P1;PMS_P2;Temp;Humidity;BMP_temperature;BMP_pressure;BME280_temperature;BME280_humidity;BME280_pressure;Samples;Min_cycle;Max_cycle;Signal;HPM_P1;HPM_P2
2023/01/13 00:00:11;;;;;;;8.63;2.33;;;;;;;13.58;62.91;100312.19;6182047;23;20336;-68
2023/01/13 00:02:38;;;;;;;11.55;2.47;;;;;;;13.55;62.73;100304.38;6181752;23;20024;-67
2023/01/13 00:05:05;;;;;;;7.53;2.30;;;;;;;13.54;62.67;100309.91;6182052;23;20021;-67
2023/01/13 00:07:32;;;;;;;12.07;2.78;;;;;;;13.52;62.83;100311.88;6181927;23;20021;-68
2023/01/13 00:09:58;;;;;;;10.93;2.33;;;;;;;13.49;62.33;100315.72;6182959;23;20013;-68
2023/01/13 00:12:25;;;;;;;9.50;3.00;;;;;;;13.47;62.85;100309.63;6181736;23;20386;-68
2023/01/13 00:14:51;;;;;;;15.15;2.85;;;;;;;13.44;62.54;100311.75;6182491;23;20070;-68
2023/01/13 00:17:18;;;;;;;10.38;2.83;;;;;;;13.41;62.28;100314.72;6181978;23;20032;-68
2023/01/13 00:19:45;;;;;;;15.98;3.17;;;;;;;13.38;62.40;100309.56;6182561;23;20365;-68
2023/01/13 00:22:12;;;;;;;10.80;2.78;;;;;;;13.36;62.33;100305.16;6181860;23;20017;-68
2023/01/13 00:24:38;;;;;;;10.98;2.70;;;;;;;13.34;62.42;100309.84;6182353;23;20021;-67
2023/01/13 00:27:05;;;;;;;9.63;3.20;;;;;;;13.32;62.54;100300.19;6182417;23;20451;-67
2023/01/13 00:29:31;;;;;;;14.45;3.10;;;;;;;13.30;62.46;100291.38;6182122;23;20021;-67
2023/01/13 00:31:58;;;;;;;11.82;3.65;;;;;;;13.27;62.27;100284.44;6161413;23;20074;-66
2023/01/13 00:34:24;;;;;;;7.90;2.88;;;;;;;13.26;62.31;100279.19;6185356;23;20083;-67
2023/01/13 00:36:51;;;;;;;15.13;3.67;;;;;;;13.23;62.36;100272.22;6181975;23;20013;-66
2023/01/13 00:39:17;;;;;;;13.55;3.35;;;;;;;13.21;62.19;100292.22;6182136;23;20024;-68
2023/01/13 00:44:29;;;;;;;14.70;3.83;;;;;;;13.15;61.56;100282.81;6182079;23;20021;-67
2023/01/13 00:46:55;;;;;;;17.75;3.10;;;;;;;13.11;61.67;100281.41;6181841;23;20496;-67
2023/01/13 00:49:22;;;;;;;10.48;2.90;;;;;;;13.08;61.49;100265.50;6181586;23;20016;-67
2023/01/13 00:51:48;;;;;;;9.90;3.25;;;;;;;13.07;61.82;100268.34;6181417;23;20090;-67
2023/01/13 00:54:15;;;;;;;15.23;4.00;;;;;;;13.04;61.82;100273.00;6155390;22;20531;-68
2023/01/13 00:56:42;;;;;;;12.30;3.55;;;;;;;13.04;61.54;100280.25;6181773;23;20017;-67
2023/01/13 00:59:13;;;;;;;12.02;3.75;;;;;;;13.02;61.25;100276.84;6181931;23;20021;-68
2023/01/13 01:01:40;;;;;;;14.27;3.28;;;;;;;12.99;61.63;100287.91;6181409;23;20028;-69
2023/01/13 01:04:07;;;;;;;21.05;3.95;;;;;;;12.95;61.12;100287.31;6181961;22;20021;-67
2023/01/13 01:06:33;;;;;;;15.70;3.78;;;;;;;12.91;61.43;100293.13;6181338;23;20343;-68
2023/01/13 01:09:00;;;;;;;11.63;3.05;;;;;;;12.87;61.05;100289.84;6181822;23;20316;-67
2023/01/13 01:11:29;;;;;;;18.55;3.95;;;;;;;12.83;61.17;100293.81;6181738;23;20378;-66
2023/01/13 01:13:59;;;;;;;14.27;3.22;;;;;;;12.80;61.29;100290.53;6181554;23;20063;-67
2023/01/13 01:16:27;;;;;;;17.48;4.25;;;;;;;12.79;61.19;100296.91;6182034;23;20410;-66
2023/01/13 01:18:55;;;;;;;15.57;4.05;;;;;;;12.75;60.99;100292.78;6181819;23;20044;-67
2023/01/13 01:21:23;;;;;;;10.23;3.55;;;;;;;12.74;60.92;100286.53;6182028;23;20062;-67
2023/01/13 01:23:50;;;;;;;14.18;3.72;;;;;;;12.73;60.79;100292.91;6181355;22;20017;-68
2023/01/13 01:26:20;;;;;;;14.45;4.28;;;;;;;12.70;61.11;100291.34;6181660;23;20017;-67
2023/01/13 01:28:47;;;;;;;22.40;4.60;;;;;;;12.70;60.93;100298.59;6181729;23;20013;-67
2023/01/13 01:31:16;;;;;;;11.55;3.45;;;;;;;12.69;61.22;100300.44;6181636;23;20019;-67
2023/01/13 01:33:45;;;;;;;21.42;4.10;;;;;;;12.70;61.12;100303.97;6181455;23;20017;-67
2023/01/13 01:36:13;;;;;;;13.35;3.55;;;;;;;12.70;61.21;100306.66;6181965;23;20013;-67
2023/01/13 01:38:40;;;;;;;15.60;4.53;;;;;;;12.70;61.46;100291.34;6181453;23;20021;-67
2023/01/13 01:41:06;;;;;;;16.17;3.85;;;;;;;12.71;61.05;100294.91;6181980;23;20066;-67
2023/01/13 01:44:02;;;;;;;16.67;3.47;;;;;;;12.69;61.48;100295.03;6181225;23;20514;-68
2023/01/13 01:46:35;;;;;;;14.88;3.75;;;;;;;12.70;61.13;100291.34;6181555;23;20460;-67
2023/01/13 01:49:43;;;;;;;14.57;3.55;;;;;;;12.69;61.18;100289.66;6181554;23;20013;-67
2023/01/13 01:52:21;;;;;;;18.13;3.95;;;;;;;12.68;61.32;100293.34;6176626;23;20021;-68
2023/01/13 01:55:01;;;;;;;16.63;4.80;;;;;;;12.65;61.13;100295.44;6181221;23;20021;-67
2023/01/13 01:57:47;;;;;;;13.98;4.10;;;;;;;12.64;61.04;100291.06;6155896;23;20017;-67
2023/01/13 02:00:14;;;;;;;17.90;4.13;;;;;;;12.62;61.01;100296.53;6181783;23;20010;-67
2023/01/13 02:02:44;;;;;;;14.60;4.70;;;;;;;12.60;61.14;100290.44;6181220;23;20117;-67
2023/01/13 02:05:12;;;;;;;18.73;3.55;;;;;;;12.59;61.01;100294.13;6181655;23;20025;-67
2023/01/13 02:07:41;;;;;;;16.40;4.20;;;;;;;12.57;61.29;100285.31;6184236;23;20016;-67
2023/01/13 02:10:11;;;;;;;16.25;3.80;;;;;;;12.56;61.07;100280.91;6184715;23;20080;-68
2023/01/13 02:12:39;;;;;;;13.65;4.75;;;;;;;12.56;60.97;100282.75;6184180;23;20447;-67
2023/01/13 02:15:07;;;;;;;20.90;4.85;;;;;;;12.53;60.99;100277.66;6184716;23;20071;-67
2023/01/13 02:18:07;;;;;;;23.90;4.55;;;;;;;12.49;60.96;100281.59;6184614;23;20058;-67
2023/01/13 02:21:04;;;;;;;26.40;4.55;;;;;;;12.48;60.87;100280.75;6184781;23;20017;-68
2023/01/13 02:27:06;;;;;;;20.67;4.63;;;;;;;12.38;60.67;100272.63;6184673;23;20013;-67
2023/01/13 02:33:35;;;;;;;14.75;4.45;;;;;;;12.31;60.45;100284.91;6185980;23;20017;-68
2023/01/13 02:36:05;;;;;;;25.42;5.68;;;;;;;12.30;60.24;100283.22;6184773;23;20021;-67
2023/01/13 02:38:48;;;;;;;23.20;5.15;;;;;;;12.27;60.70;100294.25;6184415;23;20021;-67
2023/01/13 02:44:19;;;;;;;24.83;5.13;;;;;;;12.22;60.24;100292.94;6184428;23;20070;-68
2023/01/13 02:46:55;;;;;;;22.80;4.82;;;;;;;12.19;59.98;100301.28;6184533;23;20063;-67
2023/01/13 02:49:34;;;;;;;20.15;5.20;;;;;;;12.17;60.10;100295.19;6184519;23;20389;-67
2023/01/13 02:52:09;;;;;;;22.73;5.45;;;;;;;12.17;60.30;100300.56;6184082;23;20017;-67
2023/01/13 02:54:40;;;;;;;20.85;4.72;;;;;;;12.18;60.35;100297.75;6184342;23;20028;-67
2023/01/13 02:57:10;;;;;;;23.35;6.18;;;;;;;12.17;60.17;100279.88;6184777;23;20054;-68
2023/01/13 02:59:39;;;;;;;19.92;5.45;;;;;;;12.16;60.19;100269.25;6184240;23;20076;-68
2023/01/13 03:02:09;;;;;;;22.52;5.03;;;;;;;12.15;60.15;100275.63;6183389;22;20534;-68
2023/01/13 03:04:47;;;;;;;19.30;4.70;;;;;;;12.16;59.96;100274.63;6184175;23;20017;-68
2023/01/13 03:07:35;;;;;;;18.45;5.40;;;;;;;12.17;60.13;100268.25;6184056;23;20017;-67
2023/01/13 03:10:23;;;;;;;24.08;4.88;;;;;;;12.16;60.10;100269.25;6184241;23;20096;-67
2023/01/13 03:13:14;;;;;;;24.15;5.20;;;;;;;12.15;60.08;100262.16;6184016;23;20086;-68
2023/01/13 03:15:47;;;;;;;24.88;4.75;;;;;;;12.16;60.26;100264.72;6184847;23;20021;-67
2023/01/13 03:18:13;;;;;;;22.20;5.47;;;;;;;12.16;60.01;100256.63;6182594;23;20394;-67
2023/01/13 03:20:54;;;;;;;21.85;5.85;;;;;;;12.17;60.37;100257.50;6182263;23;20096;-67
2023/01/13 03:23:31;;;;;;;22.50;5.07;;;;;;;12.18;60.25;100249.28;6182184;22;20024;-68
2023/01/13 03:26:08;;;;;;;21.17;4.88;;;;;;;12.19;60.39;100247.44;6182691;23;20025;-68
2023/01/13 03:28:45;;;;;;;20.25;5.43;;;;;;;12.21;59.97;100242.78;6182986;23;20021;-68
2023/01/13 03:31:27;;;;;;;16.75;4.63;;;;;;;12.23;60.09;100230.88;6182300;23;20443;-67
2023/01/13 03:34:06;;;;;;;18.23;4.15;;;;;;;12.24;60.26;100232.59;6182274;23;20021;-68
2023/01/13 03:36:36;;;;;;;24.20;4.50;;;;;;;12.25;60.32;100237.00;6182137;23;20017;-68
2023/01/13 03:39:09;;;;;;;21.70;4.72;;;;;;;12.25;60.19;100234.28;6182551;23;20017;-68
2023/01/13 03:41:42;;;;;;;22.67;5.20;;;;;;;12.27;60.17;100232.31;6181811;23;20521;-68
2023/01/13 03:44:21;;;;;;;17.15;4.47;;;;;;;12.30;60.37;100226.66;6182432;23;20020;-68
2023/01/13 03:47:28;;;;;;;15.75;4.45;;;;;;;12.30;60.27;100212.34;6182661;23;20021;-67
2023/01/13 03:50:10;;;;;;;20.63;4.72;;;;;;;12.31;60.07;100214.06;6181848;23;20501;-68
2023/01/13 03:52:46;;;;;;;19.75;4.45;;;;;;;12.30;60.28;100223.13;6181941;23;20017;-67
2023/01/13 03:55:14;;;;;;;;;;;;;;;12.30;60.04;100223.97;6182703;23;20013;-68
2023/01/13 03:57:58;;;;;;;20.42;4.10;;;;;;;12.34;59.77;100228.09;6182149;23;19916;-67
2023/01/13 04:00:31;;;;;;;18.25;3.63;;;;;;;12.31;59.77;100222.97;6182388;23;20017;-67
2023/01/13 04:03:06;;;;;;;13.85;3.60;;;;;;;12.29;59.85;100224.09;6181921;23;20096;-67
2023/01/13 04:05:40;;;;;;;11.75;3.05;;;;;;;12.29;59.91;100211.50;6182140;23;20017;-68
2023/01/13 04:08:19;;;;;;;13.15;2.88;;;;;;;12.29;59.68;100233.03;6182114;22;20047;-68
2023/01/13 04:10:56;;;;;;;13.35;2.95;;;;;;;12.31;59.56;100225.69;6182070;23;20446;-68
2023/01/13 04:13:27;;;;;;;12.00;2.17;;;;;;;12.32;59.31;100221.16;6182134;23;20017;-67
2023/01/13 04:15:54;;;;;;;9.40;2.63;;;;;;;12.34;59.60;100224.56;6182610;23;20040;-67
2023/01/13 04:18:26;;;;;;;5.13;2.00;;;;;;;12.32;59.34;100219.31;6181961;23;20458;-68
2023/01/13 04:20:54;;;;;;;6.47;2.10;;;;;;;12.34;58.97;100240.72;6182117;23;20100;-67
2023/01/13 04:23:21;;;;;;;7.13;1.58;;;;;;;12.34;58.83;100241.56;6181955;23;20469;-68
2023/01/13 04:25:48;;;;;;;6.50;1.77;;;;;;;12.35;58.96;100242.41;6182064;23;20484;-68
2023/01/13 04:28:16;;;;;;;4.68;1.48;;;;;;;12.34;58.92;100252.34;6181811;23;20017;-68
2023/01/13 04:30:43;;;;;;;6.15;1.80;;;;;;;12.35;58.89;100258.56;6181805;23;20450;-67
2023/01/13 04:33:11;;;;;;;6.03;1.88;;;;;;;12.34;58.60;100265.78;6181692;23;20013;-68
2023/01/13 04:35:37;;;;;;;7.88;2.30;;;;;;;12.32;58.40;100267.78;6181991;23;20448;-68
2023/01/13 04:38:09;;;;;;;5.03;2.00;;;;;;;12.31;58.53;100265.22;6181893;23;20088;-67
2023/01/13 04:40:36;;;;;;;7.60;2.00;;;;;;;12.30;58.68;100252.75;6181763;23;20021;-68
2023/01/13 04:43:03;;;;;;;7.18;2.15;;;;;;;12.29;58.84;100264.50;6181950;23;20070;-68
2023/01/13 04:45:30;;;;;;;6.10;2.17;;;;;;;12.26;58.27;100268.31;6181932;22;20090;-67
2023/01/13 04:47:56;;;;;;;14.18;2.20;;;;;;;12.24;58.87;100267.59;6181825;23;20013;-68
2023/01/13 04:50:24;;;;;;;8.70;1.80;;;;;;;12.24;58.91;100266.75;6182196;23;20040;-68
2023/01/13 04:52:51;;;;;;;9.48;2.20;;;;;;;12.22;58.64;100268.72;6181898;23;20074;-68
2023/01/13 04:55:19;;;;;;;8.82;2.30;;;;;;;12.20;58.65;100263.47;6181636;23;20084;-68
2023/01/13 04:57:46;;;;;;;10.70;2.83;;;;;;;12.21;59.06;100250.84;6181847;23;20036;-67
2023/01/13 05:00:15;;;;;;;11.43;2.38;;;;;;;12.19;58.88;100253.69;6181900;23;20017;-67
2023/01/13 05:02:42;;;;;;;8.05;2.05;;;;;;;12.20;58.85;100246.47;6181265;23;20013;-67
2023/01/13 05:05:09;;;;;;;7.75;2.92;;;;;;;12.20;58.71;100243.75;6181689;23;20517;-68
2023/01/13 05:07:36;;;;;;;8.20;2.20;;;;;;;12.18;58.66;100246.59;6155270;23;20317;-68
2023/01/13 05:10:03;;;;;;;15.48;2.90;;;;;;;12.16;59.15;100242.31;6181646;23;20470;-67
2023/01/13 05:18:01;;;;;;;9.98;3.08;;;;;;;12.09;58.72;100242.00;6181529;23;20463;-67
2023/01/13 05:20:27;;;;;;;11.80;3.20;;;;;;;12.05;58.97;100249.50;6181614;23;20458;-67
2023/01/13 05:25:42;;;;;;;14.65;3.13;;;;;;;12.00;59.36;100243.66;6181871;23;20024;-68
2023/01/13 05:28:10;;;;;;;9.88;3.13;;;;;;;11.98;59.17;100251.00;6181605;22;20055;-67
2023/01/13 05:30:41;;;;;;;10.02;3.15;;;;;;;11.97;59.22;100241.22;6181426;23;20013;-68
2023/01/13 05:33:09;;;;;;;11.93;3.45;;;;;;;11.96;59.34;100241.38;6181387;23;20018;-68
2023/01/13 05:35:37;;;;;;;11.18;3.58;;;;;;;11.94;59.34;100244.19;6181950;23;20399;-68
2023/01/13 05:38:04;;;;;;;12.80;2.92;;;;;;;11.93;59.43;100236.25;6181662;23;20393;-68
2023/01/13 05:43:20;;;;;;;9.20;2.77;;;;;;;11.94;59.25;100230.75;6181392;23;20524;-68
2023/01/13 05:46:06;;;;;;;12.43;4.20;;;;;;;11.92;59.29;100248.84;6181386;22;20344;-68
2023/01/13 05:48:34;;;;;;;13.57;2.80;;;;;;;11.91;59.41;100260.59;6181583;22;20339;-68
2023/01/13 05:51:03;;;;;;;8.88;2.42;;;;;;;11.90;59.49;100260.72;6181479;23;20385;-68
2023/01/13 05:53:30;;;;;;;13.77;2.90;;;;;;;11.89;59.45;100261.69;6181149;23;20104;-67
2023/01/13 05:55:57;;;;;;;14.80;3.38;;;;;;;11.89;59.22;100267.06;6181441;23;20092;-68
2023/01/13 05:58:25;;;;;;;13.15;3.35;;;;;;;11.91;59.37;100275.88;6181841;23;20021;-67
2023/01/13 06:00:57;;;;;;;14.38;3.25;;;;;;;11.94;59.35;100275.63;6181602;23;20067;-68
2023/01/13 06:03:24;;;;;;;15.50;3.22;;;;;;;11.95;59.62;100278.19;6155020;23;20385;-67
2023/01/13 06:05:57;;;;;;;10.43;2.85;;;;;;;11.97;59.44;100278.06;6181360;23;20406;-68
2023/01/13 06:08:24;;;;;;;14.55;3.65;;;;;;;11.98;59.51;100277.06;6181427;23;20021;-67
2023/01/13 06:10:51;;;;;;;13.40;2.72;;;;;;;11.98;59.44;100274.38;6181373;23;20045;-68
2023/01/13 06:13:17;;;;;;;11.45;3.88;;;;;;;11.96;59.30;100279.91;6181338;23;20432;-67
2023/01/13 06:15:44;;;;;;;13.70;2.97;;;;;;;11.96;59.23;100285.28;6181447;23;20048;-68
2023/01/13 06:18:11;;;;;;;10.40;3.05;;;;;;;11.94;59.32;100289.94;6181364;23;20025;-68
2023/01/13 06:20:37;;;;;;;12.00;3.13;;;;;;;11.92;59.03;100285.66;6181177;23;20454;-67
2023/01/13 06:23:08;;;;;;;16.52;3.63;;;;;;;11.89;59.17;100285.91;6181360;23;20091;-68
2023/01/13 06:25:58;;;;;;;12.15;2.97;;;;;;;11.87;59.02;100301.31;6181744;23;20096;-67
2023/01/13 06:28:25;;;;;;;18.58;3.80;;;;;;;11.84;59.11;100294.38;6181231;23;20432;-67
2023/01/13 06:30:57;;;;;;;11.05;3.30;;;;;;;11.81;59.00;100299.16;6154856;23;20513;-68
2023/01/13 06:33:36;;;;;;;11.35;3.00;;;;;;;11.78;58.85;100294.88;6181163;23;20386;-67
2023/01/13 06:36:09;;;;;;;9.07;2.53;;;;;;;11.75;59.02;100285.22;6181373;23;20091;-67
2023/01/13 06:38:41;;;;;;;11.40;2.58;;;;;;;11.74;59.15;100288.03;6181160;23;20347;-67
2023/01/13 06:41:08;;;;;;;9.73;2.53;;;;;;;11.71;58.93;100285.59;6180992;23;20524;-67
2023/01/13 06:43:35;;;;;;;13.50;2.95;;;;;;;11.68;58.71;100292.09;6180658;23;20017;-67
2023/01/13 06:46:02;;;;;;;11.35;3.05;;;;;;;11.64;59.19;100285.25;6180923;22;20013;-67
2023/01/13 06:48:32;;;;;;;11.80;3.28;;;;;;;11.62;59.03;100291.75;6181095;23;20382;-66
2023/01/13 06:51:03;;;;;;;13.27;3.38;;;;;;;11.61;58.96;100292.75;6181066;22;20021;-66
2023/01/13 06:53:30;;;;;;;10.07;2.40;;;;;;;11.59;58.74;100287.50;6181153;23;20017;-67
2023/01/13 06:55:56;;;;;;;16.23;3.38;;;;;;;11.57;59.03;100283.22;6182086;23;20021;-67
2023/01/13 06:58:23;;;;;;;11.80;2.75;;;;;;;11.56;59.00;100276.13;6182365;23;20021;-68
2023/01/13 07:00:50;;;;;;;11.57;3.17;;;;;;;11.56;59.02;100270.75;6182248;23;20017;-67
2023/01/13 07:03:18;;;;;;;12.77;3.20;;;;;;;11.57;58.66;100277.84;6155777;22;20078;-67
2023/01/13 07:05:51;;;;;;;12.10;3.10;;;;;;;11.57;58.71;100277.84;6182597;22;20088;-66
2023/01/13 07:08:17;;;;;;;17.40;3.25;;;;;;;11.56;58.58;100278.81;6182459;23;20023;-67
2023/01/13 07:10:44;;;;;;;10.07;2.70;;;;;;;11.55;58.59;100287.88;6182194;22;20045;-67
2023/01/13 07:15:57;;;;;;;14.30;3.28;;;;;;;11.50;59.01;100296.31;6182358;23;20027;-66
2023/01/13 07:18:26;;;;;;;11.60;3.35;;;;;;;11.49;58.71;100308.06;6155954;22;20028;-67
2023/01/13 07:20:57;;;;;;;14.75;3.08;;;;;;;11.51;58.44;100299.88;6182299;22;20462;-66
2023/01/13 07:23:26;;;;;;;16.42;3.47;;;;;;;11.52;58.71;100304.25;6182332;23;20017;-67
2023/01/13 07:25:57;;;;;;;17.88;3.60;;;;;;;11.52;58.83;100307.81;6181410;23;20026;-67
2023/01/13 07:28:24;;;;;;;14.15;4.03;;;;;;;11.51;58.57;100308.78;6182019;23;20013;-67
2023/01/13 07:30:51;;;;;;;15.57;3.65;;;;;;;11.54;58.82;100321.13;6181849;23;20017;-67
2023/01/13 07:33:18;;;;;;;16.92;3.80;;;;;;;11.54;58.49;100307.69;6182106;22;20025;-67
2023/01/13 07:35:45;;;;;;;16.60;4.03;;;;;;;11.54;58.35;100313.06;6182015;23;20013;-67
2023/01/13 07:38:12;;;;;;;13.75;3.42;;;;;;;11.54;58.47;100318.44;6155776;23;20384;-67
2023/01/13 07:40:39;;;;;;;15.48;3.80;;;;;;;11.55;58.25;100314.75;6182311;23;20013;-67
2023/01/13 07:46:11;;;;;;;11.30;3.50;;;;;;;11.53;58.61;100317.59;6182112;23;20041;-65
2023/01/13 07:48:37;;;;;;;25.80;5.87;;;;;;;11.55;58.46;100322.84;6182248;23;20044;-67
2023/01/13 07:51:06;;;;;;;22.92;4.75;;;;;;;11.54;58.31;100326.50;6181967;23;20028;-67
2023/01/13 07:53:34;;;;;;;17.55;5.07;;;;;;;11.52;58.28;100329.31;6181825;23;20045;-66
2023/01/13 07:56:06;;;;;;;14.27;3.92;;;;;;;11.52;58.43;100329.31;6155875;23;20239;-67
2023/01/13 07:58:34;;;;;;;14.50;3.78;;;;;;;11.52;58.12;100334.69;6182110;23;20017;-66
2023/01/13 08:01:12;;;;;;;12.45;3.58;;;;;;;11.48;58.28;100333.25;6181953;23;20025;-67
2023/01/13 08:03:39;;;;;;;16.13;3.65;;;;;;;11.46;57.95;100328.00;6181234;23;20017;-67
2023/01/13 08:06:09;;;;;;;16.55;4.20;;;;;;;11.46;58.11;100325.31;6156172;23;20458;-67
2023/01/13 08:08:36;;;;;;;17.73;4.00;;;;;;;11.45;58.26;100315.53;6182263;23;20021;-66
2023/01/13 08:11:05;;;;;;;15.10;3.58;;;;;;;11.44;57.99;100327.28;6180888;22;20505;-67
2023/01/13 08:13:32;;;;;;;14.32;3.80;;;;;;;11.47;58.03;100331.53;6187182;22;20017;-67
2023/01/13 08:16:11;;;;;;;18.58;3.47;;;;;;;11.48;57.98;100329.69;6187660;23;20017;-67
2023/01/13 08:18:38;;;;;;;18.70;4.18;;;;;;;11.49;57.91;100329.56;6182411;23;20394;-68
2023/01/13 08:21:07;;;;;;;14.90;2.90;;;;;;;11.51;58.20;100340.22;6181598;23;20012;-67
2023/01/13 08:23:35;;;;;;;14.98;4.03;;;;;;;11.53;58.02;100340.94;6183036;23;20020;-67
2023/01/13 08:26:04;;;;;;;17.90;3.90;;;;;;;11.55;58.05;100338.97;6182086;22;20024;-66
2023/01/13 08:28:31;;;;;;;18.45;3.85;;;;;;;11.57;57.86;100337.84;6182046;23;20028;-67
2023/01/13 08:31:03;;;;;;;11.38;3.22;;;;;;;11.59;58.08;100340.41;6181430;23;20028;-66
2023/01/13 08:33:30;;;;;;;17.08;4.22;;;;;;;11.61;58.04;100341.16;6178509;23;20088;-67
2023/01/13 08:36:00;;;;;;;15.05;3.92;;;;;;;11.64;58.21;100346.28;6177786;23;20044;-67
2023/01/13 08:38:27;;;;;;;13.23;3.55;;;;;;;11.68;57.89;100350.41;6153619;23;20044;-66
2023/01/13 08:40:54;;;;;;;18.70;4.10;;;;;;;11.74;58.06;100349.91;6179271;23;20082;-67
2023/01/13 08:43:20;;;;;;;17.77;4.55;;;;;;;11.78;57.85;100354.06;6179129;23;20021;-67
2023/01/13 08:45:58;;;;;;;17.80;4.32;;;;;;;11.84;57.76;100358.94;6179028;23;20021;-67
2023/01/13 08:48:27;;;;;;;13.23;3.97;;;;;;;11.90;57.81;100363.84;6181700;23;20024;-66
2023/01/13 08:51:06;;;;;;;15.23;4.30;;;;;;;11.96;58.13;100370.53;6181751;23;20023;-66
2023/01/13 08:53:33;;;;;;;11.77;3.28;;;;;;;12.03;57.70;100372.56;6155231;23;20024;-66
2023/01/13 08:56:00;;;;;;;12.18;3.72;;;;;;;12.09;58.05;100357.75;6155222;23;20013;-66
2023/01/13 08:58:26;;;;;;;14.30;3.10;;;;;;;12.14;57.69;100360.91;6155663;23;20074;-66
2023/01/13 09:00:53;;;;;;;17.13;3.83;;;;;;;12.19;57.90;100358.66;6155543;23;20096;-67
2023/01/13 09:03:20;;;;;;;15.77;3.67;;;;;;;12.23;57.83;100359.25;6149966;23;20356;-67
2023/01/13 09:05:46;;;;;;;19.20;4.00;;;;;;;12.27;57.59;100363.41;6150903;22;20026;-67
2023/01/13 09:08:13;;;;;;;18.27;4.10;;;;;;;12.33;57.95;100368.25;6151644;23;20443;-68
2023/01/13 09:10:40;;;;;;;17.50;4.15;;;;;;;12.38;57.27;100374.09;6150066;23;20326;-68
2023/01/13 09:13:11;;;;;;;16.02;3.83;;;;;;;12.41;57.47;100372.00;6151801;23;20507;-71
2023/01/13 09:15:43;;;;;;;18.20;3.88;;;;;;;12.49;57.47;100365.09;6150790;23;20063;-69
2023/01/13 09:18:11;;;;;;;16.25;3.58;;;;;;;12.55;57.53;100368.09;6151561;23;20033;-69
2023/01/13 09:20:38;;;;;;;15.27;4.22;;;;;;;12.61;57.55;100378.34;6152231;23;20017;-68
2023/01/13 09:23:05;;;;;;;14.55;4.25;;;;;;;12.69;57.36;100378.56;6149769;23;20333;-69
2023/01/13 09:25:35;;;;;;;18.52;4.05;;;;;;;12.78;57.15;100394.91;6151935;23;20017;-69
2023/01/13 09:28:03;;;;;;;17.27;3.55;;;;;;;12.86;57.15;100387.84;6151692;23;20416;-69
2023/01/13 09:30:30;;;;;;;13.23;3.83;;;;;;;12.94;56.88;100390.72;6151674;23;20417;-69
2023/01/13 09:35:43;;;;;;;15.60;3.35;;;;;;;13.09;57.05;100388.53;6151689;22;20018;-69
2023/01/13 09:38:09;;;;;;;14.38;4.10;;;;;;;13.11;57.18;100408.09;6151654;23;20041;-69
2023/01/13 09:40:38;;;;;;;24.90;4.72;;;;;;;13.13;56.67;100398.03;6151899;23;20018;-69
2023/01/13 09:49:33;;;;;;;23.23;4.68;;;;;;;13.13;56.46;100402.59;6061585;23;20056;-71
2023/01/13 09:52:09;;;;;;;16.17;4.13;;;;;;;13.07;56.24;100412.06;6141345;23;20028;-69
2023/01/13 09:54:54;;;;;;;13.32;3.88;;;;;;;13.02;56.57;100411.63;6151439;23;20118;-70
2023/01/13 09:57:21;;;;;;;14.35;4.13;;;;;;;12.96;56.17;100414.84;6151618;23;20382;-70
2023/01/13 09:59:47;;;;;;;17.52;5.03;;;;;;;12.90;56.47;100420.78;6151683;23;20397;-70
2023/01/13 10:02:43;;;;;;;16.80;4.47;;;;;;;12.84;56.57;100424.88;6167398;23;20017;-71
2023/01/13 10:05:28;;;;;;;17.27;4.72;;;;;;;12.84;56.27;100415.94;6181314;23;20017;-71
2023/01/13 10:08:01;;;;;;;17.42;4.15;;;;;;;12.81;56.56;100429.66;6181353;23;20459;-71
2023/01/13 10:10:54;;;;;;;20.85;4.53;;;;;;;12.77;56.66;100431.78;6180924;23;20095;-71
2023/01/13 10:13:27;;;;;;;18.85;4.10;;;;;;;12.75;56.38;100446.38;6180627;23;20013;-71
2023/01/13 10:16:09;;;;;;;22.33;5.05;;;;;;;12.71;56.49;100448.47;6181203;23;20018;-71
2023/01/13 10:18:57;;;;;;;18.40;4.97;;;;;;;12.68;56.66;100444.22;6181291;23;20401;-71
2023/01/13 10:21:29;;;;;;;22.83;5.28;;;;;;;12.65;56.84;100441.78;6180857;23;20017;-69
2023/01/13 10:24:11;;;;;;;19.77;4.72;;;;;;;12.62;57.09;100447.41;6154739;23;20043;-69
2023/01/13 10:26:49;;;;;;;20.38;4.57;;;;;;;12.60;56.99;100445.81;6180852;23;20017;-69
2023/01/13 10:29:24;;;;;;;20.63;4.75;;;;;;;12.59;57.20;100446.81;6182546;23;20013;-71
2023/01/13 10:31:55;;;;;;;18.55;4.65;;;;;;;12.58;57.37;100455.88;6182009;23;20339;-69
2023/01/13 10:34:23;;;;;;;22.98;5.20;;;;;;;12.60;57.50;100459.28;6181784;23;20027;-69
2023/01/13 10:37:06;;;;;;;15.55;4.78;;;;;;;12.58;57.47;100464.81;6181765;22;20047;-69
2023/01/13 10:39:45;;;;;;;22.08;5.85;;;;;;;12.54;57.58;100465.19;6156304;23;20016;-71
2023/01/13 10:42:21;;;;;;;19.90;4.78;;;;;;;12.50;57.61;100472.69;6155151;23;20024;-70
2023/01/13 10:44:58;;;;;;;19.95;5.05;;;;;;;12.45;57.55;100472.22;6182086;23;20017;-70
2023/01/13 10:47:28;;;;;;;19.92;5.40;;;;;;;12.43;58.04;100476.03;6181956;23;20101;-70
2023/01/13 10:50:11;;;;;;;16.38;5.28;;;;;;;12.37;57.77;100482.78;6182056;23;20021;-71
2023/01/13 10:52:53;;;;;;;19.35;5.50;;;;;;;12.34;57.96;100494.69;6182182;23;20017;-70
2023/01/13 10:55:25;;;;;;;18.83;4.95;;;;;;;12.31;58.04;100508.41;6155469;23;20392;-72
2023/01/13 10:57:52;;;;;;;20.92;6.13;;;;;;;12.29;58.25;100506.81;6182153;22;20031;-71
2023/01/13 11:00:30;;;;;;;21.67;5.80;;;;;;;12.25;58.50;100511.59;6182061;23;20017;-71
2023/01/13 11:03:15;;;;;;;15.15;5.35;;;;;;;12.23;58.49;100507.34;6155327;22;20051;-71
2023/01/13 11:05:50;;;;;;;15.43;5.65;;;;;;;12.21;58.49;100514.69;6155920;22;20017;-71
2023/01/13 11:08:20;;;;;;;20.83;5.82;;;;;;;12.20;58.80;100513.81;6155612;23;20049;-71
2023/01/13 11:10:50;;;;;;;19.63;5.18;;;;;;;12.21;58.68;100520.06;6182317;22;20017;-77
2023/01/13 11:13:30;;;;;;;33.33;7.50;;;;;;;12.21;58.97;100517.38;6181986;22;20087;-70
2023/01/13 11:16:09;;;;;;;28.10;5.57;;;;;;;12.23;59.13;100520.78;6181843;22;20020;-71
2023/01/13 11:19:00;;;;;;;18.27;5.43;;;;;;;12.20;59.03;100515.66;6181971;22;20021;-74
2023/01/13 11:21:35;;;;;;;20.52;5.45;;;;;;;12.22;58.76;100519.94;6182103;22;20058;-70
2023/01/13 11:24:28;;;;;;;21.95;5.20;;;;;;;12.23;59.06;100523.47;6181786;22;20032;-70
2023/01/13 11:27:04;;;;;;;20.63;5.85;;;;;;;12.26;59.22;100531.31;6182145;23;20443;-70
2023/01/13 11:29:36;;;;;;;19.42;4.72;;;;;;;12.27;59.29;100519.56;6155889;23;20055;-69
2023/01/13 11:32:17;;;;;;;20.48;5.40;;;;;;;12.27;59.14;100527.63;6181995;22;20078;-70
2023/01/13 11:34:51;;;;;;;23.85;5.45;;;;;;;12.27;59.05;100524.94;6181579;22;20024;-69
2023/01/13 11:37:25;;;;;;;18.55;5.10;;;;;;;12.28;59.30;100532.03;6182071;23;20044;-70
2023/01/13 11:40:14;;;;;;;18.30;4.57;;;;;;;12.29;59.24;100520.28;6181803;23;20118;-69
2023/01/13 11:42:52;;;;;;;17.48;4.95;;;;;;;12.31;59.43;100531.78;6181725;23;20014;-70
2023/01/13 11:45:29;;;;;;;18.88;5.85;;;;;;;12.33;59.34;100529.81;6181132;23;20461;-69
2023/01/13 11:47:59;;;;;;;19.77;5.10;;;;;;;12.35;59.10;100528.69;6182090;22;20021;-69
2023/01/13 11:50:53;;;;;;;19.10;5.85;;;;;;;12.40;59.27;100529.16;6181748;23;20586;-70
2023/01/13 11:53:44;;;;;;;20.23;5.82;;;;;;;12.49;59.42;100529.38;6181771;22;20335;-70
2023/01/13 11:56:28;;;;;;;23.33;4.95;;;;;;;12.57;59.56;100532.28;6181387;23;20096;-70
2023/01/13 11:59:31;;;;;;;23.92;5.22;;;;;;;12.64;59.63;100533.50;6182012;23;20047;-70
2023/01/13 12:02:18;;;;;;;15.32;4.30;;;;;;;12.71;59.01;100530.16;6182183;23;20024;-69
2023/01/13 12:04:54;;;;;;;16.23;4.72;;;;;;;12.76;59.05;100526.22;6155359;23;20347;-69
2023/01/13 12:07:44;;;;;;;19.98;4.40;;;;;;;12.81;59.01;100529.38;6181792;23;20028;-70
2023/01/13 12:10:30;;;;;;;21.92;5.13;;;;;;;12.82;58.83;100529.25;6155418;23;20017;-70
2023/01/13 12:13:06;;;;;;;22.65;4.60;;;;;;;12.84;58.77;100531.81;6155261;23;20044;-70
2023/01/13 12:16:02;;;;;;;18.02;4.60;;;;;;;12.85;58.80;100541.59;6181703;23;20062;-69
2023/01/13 12:18:50;;;;;;;19.48;4.55;;;;;;;12.85;58.88;100545.16;6181717;23;20278;-69
2023/01/13 12:21:24;;;;;;;16.00;4.22;;;;;;;12.85;58.91;100564.03;6181768;23;20070;-76